Time;durP1;ratioP1;P1;durP2;ratioP2;P2;SDS_P1;SDS_P2;PMS_P1;PMS_P2;Temp;Humidity;BMP_temperature;BMP_pressure;BME280_temperature;BME280_humidity;BME280_pressure;Samples;Min_cycle;Max_cycle;Signal;HPM_P1;HPM_P2
2023/03/11 17:41:55;;;;;;;;;6.40;6.20;;;;;9.64;53.50;100419.91;4667847;27;46335;-65
2023/03/11 17:44:21;;;;;;;;;4.00;4.00;;;;;9.52;53.54;100397.81;4708084;29;45856;-66
2023/03/11 17:46:47;;;;;;;;;7.25;6.00;;;;;9.57;53.16;100402.66;4733614;29;45623;-64
2023/03/11 17:49:15;;;;;;;;;6.50;5.50;;;;;9.58;53.94;100418.88;4722544;29;46415;-66
2023/03/11 17:51:41;;;;;;;;;8.40;5.20;;;;;9.59;53.61;100411.50;4754209;29;46336;-67
2023/03/11 17:54:06;;;;;;;;;7.00;7.00;;;;;9.55;54.35;100421.22;4716669;29;45462;-67
2023/03/11 17:56:32;;;;;;;;;8.00;7.00;;;;;9.52;54.16;100416.13;4746147;29;47107;-67
2023/03/11 17:58:58;;;;;;;;;6.20;6.00;;;;;9.45;53.82;100414.25;4745918;29;45590;-64
2023/03/11 18:01:25;;;;;;;;;7.25;7.25;;;;;9.51;54.84;100422.69;4745087;29;45577;-65
2023/03/11 18:03:51;;;;;;;;;7.20;6.00;;;;;9.56;54.79;100429.19;4749050;29;45664;-68
2023/03/11 18:06:17;;;;;;;;;9.20;8.60;;;;;9.33;54.76;100388.56;4746791;29;46086;-63
2023/03/11 18:08:43;;;;;;;;;7.80;4.00;;;;;9.49;55.11;100426.47;4747855;29;45685;-64
2023/03/11 18:11:10;;;;;;;;;4.50;4.50;;;;;9.51;55.13;100425.41;4748339;29;45464;-63
2023/03/11 18:13:36;;;;;;;;;7.00;6.20;;;;;9.50;55.68;100416.34;4819289;24;45617;-50
2023/03/11 18:16:12;;;;;;;;;9.75;7.00;;;;;9.50;54.58;100430.03;4770144;29;46089;-56
2023/03/11 18:18:39;;;;;;;;;12.00;10.80;;;;;9.51;54.54;100426.28;4767300;29;45437;-57
2023/03/11 18:21:06;;;;;;;;;7.60;7.60;;;;;9.55;55.60;100426.69;4770809;29;45955;-53
2023/03/11 18:23:32;;;;;;;;;8.40;7.00;;;;;9.58;55.18;100438.06;4786183;29;45450;-57
2023/03/11 18:25:59;;;;;;;;;6.00;6.00;;;;;9.23;54.99;100386.25;4787057;29;46944;-58
2023/03/11 18:28:25;;;;;;;;;6.80;6.80;;;;;9.58;55.48;100442.69;4761484;29;45587;-57
2023/03/11 18:30:52;;;;;;;;;11.25;8.50;;;;;9.56;56.45;100445.63;4751153;29;45434;-62
2023/03/11 18:33:18;;;;;;;;;7.80;7.40;;;;;9.53;55.34;100437.84;4780976;29;45677;-57
2023/03/11 18:35:44;;;;;;;;;10.00;7.60;;;;;9.53;56.07;100445.22;4765577;29;47336;-57
2023/03/11 18:38:10;;;;;;;;;8.00;7.00;;;;;9.53;56.34;100442.47;4769229;29;46051;-57
2023/03/11 18:40:36;;;;;;;;;8.60;7.00;;;;;9.56;56.04;100444.81;4765854;29;45496;-60
2023/03/11 18:43:01;;;;;;;;;7.75;7.75;;;;;9.54;56.38;100447.75;4746375;29;45362;-59
2023/03/11 18:45:27;;;;;;;;;12.50;9.50;;;;;9.54;56.61;100449.66;4757508;29;46029;-63
2023/03/11 18:47:53;;;;;;;;;8.00;8.00;;;;;9.53;56.27;100447.97;4750095;29;46572;-61
2023/03/11 18:50:19;;;;;;;;;10.75;8.75;;;;;9.53;56.15;100448.81;4771113;29;45367;-61
2023/03/11 18:52:44;;;;;;;;;10.50;9.75;;;;;9.51;56.26;100453.66;4772534;29;45487;-58
2023/03/11 18:55:10;;;;;;;;;9.00;9.00;;;;;9.49;57.11;100456.63;4753489;29;47653;-63
2023/03/11 18:57:36;;;;;;;;;8.75;8.50;;;;;9.45;56.87;100463.56;4747193;29;46164;-63
2023/03/11 19:00:01;;;;;;;;;10.00;7.50;;;;;9.48;57.37;100476.84;4747398;29;45440;-62
2023/03/11 19:02:30;;;;;;;;;10.25;9.00;;;;;9.49;57.22;100470.31;4742226;29;45834;-61
2023/03/11 19:04:55;;;;;;;;;10.00;9.60;;;;;9.48;57.65;100467.78;4769633;29;48102;-62
2023/03/11 19:07:21;;;;;;;;;11.00;10.25;;;;;9.48;57.71;100468.63;4766568;29;45714;-61
2023/03/11 19:09:47;;;;;;;;;9.50;7.75;;;;;9.39;57.83;100456.19;4767159;29;45452;-62
2023/03/11 19:12:13;;;;;;;;;13.20;11.20;;;;;9.44;57.54;100459.13;4752509;29;45472;-63
2023/03/11 19:14:39;;;;;;;;;13.75;12.25;;;;;9.37;58.32;100447.34;4741198;29;48505;-60
2023/03/11 19:17:04;;;;;;;;;12.75;8.50;;;;;9.39;58.86;100456.19;4755515;29;45389;-61
2023/03/11 19:19:37;;;;;;;;;8.50;8.50;;;;;9.42;58.40;100446.72;4767931;29;45410;-63
2023/03/11 19:22:02;;;;;;;;;10.40;10.40;;;;;9.42;58.31;100446.72;4752752;29;45422;-62
2023/03/11 19:24:28;;;;;;;;;13.25;11.75;;;;;8.82;59.04;100347.94;4737739;29;46883;-62
2023/03/11 19:26:56;;;;;;;;;12.50;12.00;;;;;9.33;58.68;100433.22;4768347;29;45383;-62
2023/03/11 19:29:23;;;;;;;;;12.20;11.40;;;;;9.21;59.42;100423.97;4767624;29;45471;-62
2023/03/11 19:31:54;;;;;;;;;14.00;10.40;;;;;9.30;59.72;100450.09;4753026;29;45426;-62
2023/03/11 19:34:20;;;;;;;;;13.40;12.80;;;;;9.29;59.17;100459.34;4765502;29;45477;-62
2023/03/11 19:36:48;;;;;;;;;13.00;11.50;;;;;9.07;59.77;100432.19;4767513;29;45518;-62
2023/03/11 19:39:17;;;;;;;;;12.20;11.20;;;;;9.26;59.15;100462.53;4752128;29;45464;-62
2023/03/11 19:41:43;;;;;;;;;11.20;10.60;;;;;9.18;59.97;100443.56;4752788;29;45682;-66
2023/03/11 19:44:09;;;;;;;;;8.00;8.00;;;;;9.32;59.90;100444.41;4749073;29;45552;-61
2023/03/11 19:46:35;;;;;;;;;17.00;13.75;;;;;9.33;60.85;100446.94;4764314;29;45425;-63
2023/03/11 19:49:01;;;;;;;;;12.60;12.60;;;;;9.11;60.28;100429.84;4741482;29;46052;-63
2023/03/11 19:51:27;;;;;;;;;14.60;14.40;;;;;9.23;60.29;100460.19;4748468;29;45522;-62
2023/03/11 19:53:52;;;;;;;;;13.75;13.00;;;;;9.31;60.36;100475.56;4731004;29;45547;-62
2023/03/11 19:56:18;;;;;;;;;16.75;11.75;;;;;9.29;61.26;100472.22;4748283;29;45568;-63
2023/03/11 19:58:44;;;;;;;;;11.75;10.50;;;;;9.26;60.89;100462.53;4766396;29;45530;-62
2023/03/11 20:01:17;;;;;;;;;12.80;12.60;;;;;9.12;60.65;100433.44;4764398;29;45868;-61
2023/03/11 20:03:43;;;;;;;;;13.80;12.40;;;;;9.32;61.37;100463.56;4747474;29;47038;-62
2023/03/11 20:06:09;;;;;;;;;14.60;13.00;;;;;9.31;61.44;100464.63;4734455;29;45556;-63
2023/03/11 20:08:36;;;;;;;;;15.25;13.00;;;;;9.29;61.22;100451.13;4762984;29;45658;-62
2023/03/11 20:11:04;;;;;;;;;15.00;15.00;;;;;9.26;61.74;100450.72;4748761;29;45415;-63
2023/03/11 20:13:29;;;;;;;;;12.20;12.00;;;;;9.26;61.67;100439.75;4763732;29;46574;-63
2023/03/11 20:16:05;;;;;;;;;14.50;14.50;;;;;9.18;62.43;100432.63;4734430;29;45848;-66
2023/03/11 20:18:31;;;;;;;;;20.60;14.60;;;;;9.22;62.65;100439.34;4734408;29;45634;-62
2023/03/11 20:20:57;;;;;;;;;10.50;9.00;;;;;9.19;62.61;100435.13;4763596;29;45564;-63
2023/03/11 20:23:22;;;;;;;;;17.25;17.25;;;;;9.21;62.53;100446.72;4763017;29;46207;-63
2023/03/11 20:25:48;;;;;;;;;13.75;13.75;;;;;9.22;62.93;100436.59;4747810;29;45942;-62
2023/03/11 20:28:13;;;;;;;;;15.25;13.25;;;;;9.22;64.29;100434.72;4748099;29;45504;-59
2023/03/11 20:30:39;;;;;;;;;14.25;13.75;;;;;9.19;65.04;100435.13;4748430;29;45467;-61
2023/03/11 20:33:05;;;;;;;;;21.25;17.75;;;;;9.17;64.19;100429.03;4762746;29;45524;-60
2023/03/11 20:35:31;;;;;;;;;17.00;16.60;;;;;9.22;64.15;100434.72;4764155;29;45430;-61
2023/03/11 20:37:58;;;;;;;;;16.75;16.75;;;;;9.24;65.08;100433.66;4761881;29;45650;-61
2023/03/11 20:40:23;;;;;;;;;14.60;14.60;;;;;9.17;65.25;100437.22;4748724;29;45665;-61
2023/03/11 20:42:49;;;;;;;;;15.75;15.25;;;;;9.09;65.94;100438.28;4748274;29;47388;-61
2023/03/11 20:45:20;;;;;;;;;13.00;13.00;;;;;8.89;65.64;100399.09;4764478;29;45835;-62
2023/03/11 20:47:45;;;;;;;;;17.80;14.20;;;;;9.04;66.37;100423.53;4749594;29;45589;-62
2023/03/11 20:50:14;;;;;;;;;17.50;12.75;;;;;9.09;66.86;100437.44;4730429;29;45431;-57
2023/03/11 20:52:43;;;;;;;;;22.00;17.60;;;;;9.01;67.68;100430.28;4740161;29;45977;-59
2023/03/11 20:55:09;;;;;;;;;13.60;13.20;;;;;8.97;66.58;100418.06;4761511;29;45823;-60
2023/03/11 20:57:35;;;;;;;;;20.00;15.75;;;;;8.67;67.07;100364.56;4748278;29;45545;-62
2023/03/11 21:00:03;;;;;;;;;16.60;14.60;;;;;9.09;67.80;100443.75;4755968;29;46010;-62
2023/03/11 21:02:32;;;;;;;;;17.60;15.20;;;;;8.87;68.36;100412.16;4763117;29;47209;-57
2023/03/11 21:04:57;;;;;;;;;16.40;13.40;;;;;9.11;68.22;100443.56;4750322;29;45463;-63
2023/03/11 21:07:23;;;;;;;;;21.25;18.50;;;;;9.07;68.72;100439.53;4735470;29;45534;-60
2023/03/11 21:09:53;;;;;;;;;18.00;16.75;;;;;9.00;68.09;100419.53;4749912;29;45553;-58
2023/03/11 21:12:19;;;;;;;;;20.00;17.40;;;;;9.16;68.85;100441.03;4766920;29;47600;-61
2023/03/11 21:14:44;;;;;;;;;21.20;16.80;;;;;9.11;69.89;100432.59;4768595;29;45410;-59
2023/03/11 21:17:10;;;;;;;;;20.50;18.00;;;;;9.00;70.13;100430.47;4768173;29;45375;-58
2023/03/11 21:19:36;;;;;;;;;9.50;9.50;;;;;9.00;71.74;100425.84;4768423;29;45838;-58
2023/03/11 21:22:01;;;;;;;;;15.00;14.50;;;;;9.09;71.48;100441.00;4766997;29;46646;-58
2023/03/11 21:24:26;;;;;;;;;15.75;15.75;;;;;9.12;71.63;100439.75;4766735;29;46075;-60
2023/03/11 21:26:52;;;;;;;;;20.25;17.75;;;;;9.15;72.01;100443.97;4767634;29;45420;-58
2023/03/11 21:29:18;;;;;;;;;18.75;18.75;;;;;9.18;72.31;100441.66;4766409;29;45482;-57
2023/03/11 21:31:43;;;;;;;;;20.00;18.00;;;;;9.17;71.99;100444.59;4768910;29;46058;-59
2023/03/11 21:34:10;;;;;;;;;19.00;18.50;;;;;9.16;72.48;100434.69;4767517;29;46039;-58
2023/03/11 21:36:36;;;;;;;;;21.20;19.60;;;;;9.08;72.39;100436.59;4769244;29;45445;-57
2023/03/11 21:39:03;;;;;;;;;23.80;19.40;;;;;9.09;72.80;100441.00;4768927;29;45383;-60
2023/03/11 21:41:28;;;;;;;;;18.80;18.00;;;;;9.12;72.23;100430.72;4751946;29;47246;-61
2023/03/11 21:43:54;;;;;;;;;13.75;13.75;;;;;8.99;72.67;100415.97;4767300;29;45468;-60
2023/03/11 21:46:22;;;;;;;;;23.60;22.60;;;;;8.94;72.87;100405.66;4767186;29;45462;-61
2023/03/11 21:48:48;;;;;;;;;24.20;18.20;;;;;8.80;72.72;100369.19;4752700;29;45508;-61
2023/03/11 21:51:14;;;;;;;;;21.75;17.50;;;;;8.96;73.96;100413.63;4767144;29;46443;-61
2023/03/11 21:53:39;;;;;;;;;18.60;18.20;;;;;8.95;73.92;100425.63;4767721;29;45490;-59
2023/03/11 21:56:08;;;;;;;;;18.25;18.25;;;;;8.99;74.19;100426.91;4768041;29;45464;-59
2023/03/11 21:58:34;;;;;;;;;16.00;15.80;;;;;9.12;73.94;100439.75;4768178;29;45699;-59
2023/03/11 22:00:59;;;;;;;;;19.25;17.75;;;;;9.13;73.91;100441.44;4767471;29;47146;-58
2023/03/11 22:03:25;;;;;;;;;18.75;16.00;;;;;9.07;74.33;100437.66;4752717;29;45451;-63
2023/03/11 22:05:56;;;;;;;;;15.50;13.50;;;;;9.05;73.90;100431.56;4752656;29;45627;-57
2023/03/11 22:08:22;;;;;;;;;25.80;19.00;;;;;9.06;74.50;100427.75;4738723;29;45639;-60
2023/03/11 22:10:48;;;;;;;;;17.80;17.00;;;;;8.85;74.71;100406.06;4728156;29;48046;-58
2023/03/11 22:13:13;;;;;;;;;14.00;12.60;;;;;8.81;74.24;100405.63;4760284;29;45452;-58
2023/03/11 22:15:39;;;;;;;;;15.00;15.00;;;;;9.04;74.72;100429.88;4765395;29;45415;-60
2023/03/11 22:18:05;;;;;;;;;16.75;14.25;;;;;9.01;75.09;100423.97;4752545;29;45407;-58
2023/03/11 22:20:30;;;;;;;;;18.25;17.00;;;;;9.02;75.27;100423.75;4768341;29;46479;-57
2023/03/11 22:22:56;;;;;;;;;21.25;18.00;;;;;9.05;74.24;100437.03;4767306;29;45543;-61
2023/03/11 22:25:21;;;;;;;;;17.50;14.25;;;;;9.05;75.03;100426.06;4767203;29;45744;-59
2023/03/11 22:27:48;;;;;;;;;19.75;18.50;;;;;9.08;74.43;100428.38;4766638;29;45423;-56
2023/03/11 22:30:14;;;;;;;;;17.00;16.80;;;;;9.05;74.78;100430.69;4768838;29;45486;-60
2023/03/11 22:32:39;;;;;;;;;16.50;16.50;;;;;9.07;74.87;100420.38;4767109;29;45538;-58
2023/03/11 22:35:05;;;;;;;;;16.25;14.00;;;;;9.06;75.64;100433.22;4769305;29;46029;-56
2023/03/11 22:37:31;;;;;;;;;15.25;14.25;;;;;9.09;74.88;100423.75;4768063;29;45625;-56
2023/03/11 22:39:59;;;;;;;;;16.00;16.00;;;;;9.09;74.99;100440.19;4752677;29;45523;-61
2023/03/11 22:42:25;;;;;;;;;15.00;15.00;;;;;9.02;75.06;100420.19;4768903;29;45421;-60
2023/03/11 22:44:50;;;;;;;;;18.25;14.25;;;;;8.86;76.07;100392.16;4767574;29;45437;-64
2023/03/11 22:47:22;;;;;;;;;14.75;13.00;;;;;9.12;75.67;100445.22;4769988;29;45615;-62
2023/03/11 22:49:47;;;;;;;;;16.80;12.60;;;;;9.11;74.88;100432.59;4768052;29;46384;-63
2023/03/11 22:52:13;;;;;;;;;14.25;14.25;;;;;9.20;75.24;100439.56;4752978;29;45433;-62
2023/03/11 22:54:38;;;;;;;;;13.75;11.25;;;;;9.24;75.20;100440.00;4751786;29;45542;-62
2023/03/11 22:57:06;;;;;;;;;16.75;12.50;;;;;9.26;74.62;100445.22;4752432;29;45354;-61
2023/03/11 22:59:32;;;;;;;;;13.00;13.00;;;;;9.27;74.43;100436.81;4766696;29;46225;-61
2023/03/11 23:02:01;;;;;;;;;12.25;12.25;;;;;9.28;75.57;100433.03;4768700;29;45463;-62
2023/03/11 23:04:26;;;;;;;;;12.60;12.20;;;;;9.28;76.24;100422.06;4752703;29;45404;-62
2023/03/11 23:06:53;;;;;;;;;15.75;14.25;;;;;9.24;75.61;100426.28;4751315;29;45372;-63
2023/03/11 23:09:20;;;;;;;;;13.40;13.00;;;;;9.28;75.83;100421.25;4751201;29;46716;-62
2023/03/11 23:11:47;;;;;;;;;15.60;13.40;;;;;9.23;75.62;100419.09;4766258;29;45651;-62
2023/03/11 23:14:13;;;;;;;;;15.20;15.20;;;;;9.32;76.01;100419.75;4768096;29;45537;-62
2023/03/11 23:16:40;;;;;;;;;14.25;14.00;;;;;9.30;76.31;100410.91;4768508;29;45620;-61
2023/03/11 23:19:06;;;;;;;;;18.60;12.40;;;;;9.15;75.64;100389.22;4767041;29;47057;-62
2023/03/11 23:21:31;;;;;;;;;17.00;14.20;;;;;9.35;76.06;100411.94;4767015;29;45307;-61
2023/03/11 23:23:58;;;;;;;;;14.50;14.25;;;;;9.44;75.71;100426.25;4751286;29;45847;-62
2023/03/11 23:26:24;;;;;;;;;13.00;12.40;;;;;9.45;75.85;100417.00;4766616;29;45466;-61
2023/03/11 23:28:52;;;;;;;;;13.25;11.00;;;;;9.42;75.54;100416.56;4765944;29;46076;-62
2023/03/11 23:31:18;;;;;;;;;12.00;10.40;;;;;9.47;75.91;100420.38;4751183;29;45458;-61
2023/03/11 23:33:44;;;;;;;;;14.40;13.40;;;;;9.47;76.33;100414.91;4764442;29;45460;-61
2023/03/11 23:36:11;;;;;;;;;17.25;13.75;;;;;9.48;76.34;100422.06;4765537;29;45467;-62
2023/03/11 23:38:37;;;;;;;;;12.80;10.40;;;;;9.26;76.29;100396.78;4765070;29;46952;-62
2023/03/11 23:41:11;;;;;;;;;17.25;12.50;;;;;9.49;76.41;100426.47;4764741;29;45444;-62
2023/03/11 23:43:36;;;;;;;;;16.20;14.20;;;;;9.45;76.74;100416.16;4750430;29;45453;-62
2023/03/11 23:46:02;;;;;;;;;13.75;10.75;;;;;9.53;76.95;100428.78;4765661;29;45784;-62
2023/03/11 23:48:28;;;;;;;;;13.50;9.75;;;;;9.55;77.57;100432.16;4766550;29;45999;-62
2023/03/11 23:50:57;;;;;;;;;13.80;12.40;;;;;9.55;77.58;100430.25;4735932;29;45449;-62
2023/03/11 23:53:23;;;;;;;;;18.80;14.40;;;;;9.58;77.59;100437.22;4765663;29;45450;-62
2023/03/11 23:55:49;;;;;;;;;16.00;13.20;;;;;9.45;77.63;100410.69;4765529;29;45495;-62
2023/03/11 23:58:15;;;;;;;;;7.60;7.00;;;;;9.59;78.30;100434.25;4766418;29;45835;-60
